Time;durP1;ratioP1;P1;durP2;ratioP2;P2;SDS_P1;SDS_P2;PMS_P1;PMS_P2;Temp;Humidity;BMP_temperature;BMP_pressure;BME280_temperature;BME280_humidity;BME280_pressure;Samples;Min_cycle;Max_cycle;Signal;HPM_P1;HPM_P2
2023/10/06 00:00:34;;;;;;;1.77;0.60;;;21.40;84.10;;;;;;5089204;28;20235;-83
2023/10/06 00:03:10;;;;;;;2.47;0.45;;;21.50;81.00;;;;;;5079338;28;20340;-83
2023/10/06 00:05:42;;;;;;;0.77;0.43;;;21.60;79.20;;;;;;5074028;28;20218;-82
2023/10/06 00:08:17;;;;;;;2.05;0.57;;;21.70;78.40;;;;;;5093894;27;20658;-82
2023/10/06 00:10:55;;;;;;;1.33;0.50;;;21.80;79.00;;;;;;5084082;28;20256;-81
2023/10/06 00:13:29;;;;;;;1.25;0.50;;;21.90;79.00;;;;;;5098876;28;20199;-82
2023/10/06 00:16:02;;;;;;;0.63;0.40;;;22.00;78.20;;;;;;5091678;28;20392;-83
2023/10/06 00:18:36;;;;;;;0.60;0.30;;;22.20;77.50;;;;;;5075262;28;20299;-82
2023/10/06 00:21:14;;;;;;;2.70;0.60;;;22.40;76.60;;;;;;5072003;28;20203;-81
2023/10/06 00:23:48;;;;;;;1.65;0.57;;;22.50;76.00;;;;;;5071338;28;20714;-83
2023/10/06 00:26:20;;;;;;;0.95;0.43;;;22.70;75.50;;;;;;5072031;28;20640;-82
2023/10/06 00:28:51;;;;;;;1.90;0.70;;;22.80;75.30;;;;;;5087254;28;20203;-83
2023/10/06 00:31:24;;;;;;;0.63;0.30;;;22.90;73.50;;;;;;5091896;28;20542;-83
2023/10/06 00:34:00;;;;;;;1.65;0.50;;;22.90;72.30;;;;;;5081914;28;20235;-83
2023/10/06 00:36:34;;;;;;;1.67;0.50;;;23.00;71.20;;;;;;5072820;28;20203;-82
2023/10/06 00:39:12;;;;;;;1.83;0.57;;;22.90;69.90;;;;;;5072492;28;20195;-82
2023/10/06 00:41:44;;;;;;;3.25;0.50;;;23.10;69.20;;;;;;5082755;28;20191;-82
2023/10/06 00:44:18;;;;;;;1.08;0.50;;;23.10;67.00;;;;;;5071929;28;20298;-82
2023/10/06 00:46:58;;;;;;;1.45;0.60;;;23.10;67.80;;;;;;5089035;28;20231;-83
2023/10/06 00:49:30;;;;;;;2.67;0.50;;;23.30;66.60;;;;;;5075001;28;20207;-83
2023/10/06 00:52:06;;;;;;;0.60;0.50;;;23.40;66.20;;;;;;5084836;28;20206;-82
2023/10/06 00:54:43;;;;;;;1.38;0.50;;;23.30;66.50;;;;;;5092284;28;20194;-83
2023/10/06 00:57:18;;;;;;;0.80;0.38;;;23.50;64.00;;;;;;5094921;28;20198;-82
2023/10/06 00:59:53;;;;;;;1.08;0.40;;;23.60;61.90;;;;;;5083981;28;20242;-83
2023/10/06 01:02:25;;;;;;;0.20;0.20;;;23.70;61.10;;;;;;5072999;28;20320;-82
2023/10/06 01:04:57;;;;;;;0.60;0.20;;;23.90;60.30;;;;;;5085267;28;20273;-81
2023/10/06 01:07:32;;;;;;;0.43;0.20;;;23.90;59.90;;;;;;5074768;28;20700;-84
2023/10/06 01:10:15;;;;;;;1.08;0.20;;;23.80;59.10;;;;;;5074601;28;20199;-83
2023/10/06 01:12:51;;;;;;;1.80;0.50;;;23.50;60.20;;;;;;5091519;28;20199;-83
2023/10/06 01:15:28;;;;;;;1.63;0.65;;;23.40;60.80;;;;;;5085343;28;20291;-81
2023/10/06 01:18:07;;;;;;;1.45;1.00;;;23.40;61.50;;;;;;5100647;28;20206;-81
2023/10/06 01:20:41;;;;;;;2.92;0.70;;;23.50;62.70;;;;;;5095398;28;20214;-81
2023/10/06 01:23:20;;;;;;;3.25;1.20;;;23.60;64.00;;;;;;5080980;28;20210;-83
2023/10/06 01:25:53;;;;;;;1.83;0.52;;;23.50;66.60;;;;;;5074377;28;20690;-82
2023/10/06 01:28:34;;;;;;;1.02;0.50;;;23.50;67.30;;;;;;5074745;28;20203;-82
2023/10/06 01:31:07;;;;;;;1.42;0.63;;;23.60;65.70;;;;;;5074595;28;20195;-82
2023/10/06 01:33:38;;;;;;;1.30;0.75;;;23.70;68.10;;;;;;5089752;28;20235;-82
2023/10/06 01:36:13;;;;;;;1.17;0.50;;;23.70;69.10;;;;;;5094930;28;20204;-82
2023/10/06 01:38:49;;;;;;;0.47;0.30;;;23.70;63.90;;;;;;5084942;28;20208;-83
2023/10/06 01:41:26;;;;;;;1.17;0.30;;;23.70;60.50;;;;;;5075039;28;20203;-83
2023/10/06 01:43:59;;;;;;;1.25;0.35;;;23.80;60.40;;;;;;5076303;28;20199;-82
2023/10/06 01:46:38;;;;;;;1.02;0.60;;;23.90;61.30;;;;;;5080501;28;20258;-82
2023/10/06 01:49:11;;;;;;;0.88;0.40;;;23.90;62.40;;;;;;5081435;28;20686;-83
2023/10/06 01:51:45;;;;;;;1.45;0.80;;;23.90;62.60;;;;;;5088232;28;20195;-83
2023/10/06 01:54:19;;;;;;;2.42;0.40;;;23.90;62.70;;;;;;5096886;28;20208;-82
2023/10/06 01:56:54;;;;;;;2.25;0.70;;;23.70;61.60;;;;;;5095126;28;20202;-83
2023/10/06 01:59:32;;;;;;;3.60;0.55;;;23.50;64.30;;;;;;5092315;28;20231;-83
2023/10/06 02:02:08;;;;;;;1.45;0.47;;;23.30;66.10;;;;;;5088870;28;20219;-83
2023/10/06 02:04:45;;;;;;;2.55;1.00;;;23.10;67.80;;;;;;5087289;28;20205;-83
2023/10/06 02:07:19;;;;;;;3.17;0.90;;;22.80;68.80;;;;;;5080110;28;20227;-82
2023/10/06 02:09:57;;;;;;;3.58;0.90;;;22.60;70.30;;;;;;5089175;28;20725;-81
2023/10/06 02:12:31;;;;;;;1.40;0.70;;;22.50;70.90;;;;;;5102591;28;20206;-82
2023/10/06 02:15:08;;;;;;;3.05;1.00;;;22.40;72.50;;;;;;5098927;28;20655;-81
2023/10/06 02:17:42;;;;;;;3.75;0.75;;;22.40;71.60;;;;;;5088500;28;20204;-81
2023/10/06 02:20:28;;;;;;;2.85;1.65;;;22.40;71.20;;;;;;5081222;28;20188;-81
2023/10/06 02:23:03;;;;;;;2.20;0.75;;;22.30;71.60;;;;;;5090896;28;20224;-81
2023/10/06 02:25:39;;;;;;;2.25;0.90;;;22.30;75.90;;;;;;5079421;28;20314;-81
2023/10/06 02:28:14;;;;;;;1.15;0.70;;;22.10;78.30;;;;;;5076662;28;20203;-81
2023/10/06 02:30:51;;;;;;;2.38;0.52;;;22.00;80.60;;;;;;5077202;28;20196;-82
2023/10/06 02:33:24;;;;;;;1.13;0.50;;;21.80;83.90;;;;;;5085195;28;20894;-82
2023/10/06 02:35:57;;;;;;;1.02;0.50;;;21.80;86.20;;;;;;5090137;28;20256;-81
2023/10/06 02:38:41;;;;;;;1.60;0.50;;;21.60;84.80;;;;;;5078481;28;20212;-82
2023/10/06 02:41:18;;;;;;;2.60;0.50;;;21.50;84.70;;;;;;5091049;28;20187;-82
2023/10/06 02:43:51;;;;;;;3.67;0.70;;;21.30;83.90;;;;;;5094845;28;20214;-81
2023/10/06 02:46:25;;;;;;;1.35;0.60;;;21.10;85.10;;;;;;5095507;28;20992;-81
2023/10/06 02:49:07;;;;;;;2.33;0.80;;;21.10;83.40;;;;;;5091204;28;20203;-82
2023/10/06 02:51:47;;;;;;;2.15;1.05;;;21.10;83.20;;;;;;5086456;28;20202;-81
2023/10/06 02:54:29;;;;;;;2.47;0.60;;;20.80;86.20;;;;;;5083316;28;20217;-82
2023/10/06 02:57:06;;;;;;;3.38;0.60;;;20.70;86.90;;;;;;5085926;28;20257;-81
2023/10/06 02:59:39;;;;;;;3.40;0.52;;;20.70;86.50;;;;;;5079554;28;20230;-81
2023/10/06 03:02:18;;;;;;;3.63;0.63;;;20.50;87.30;;;;;;5082002;28;20198;-82
2023/10/06 03:04:55;;;;;;;2.78;0.50;;;20.60;88.70;;;;;;5081847;28;20309;-81
2023/10/06 03:07:43;;;;;;;2.05;0.70;;;20.70;90.20;;;;;;5086171;28;20224;-82
2023/10/06 03:10:26;;;;;;;1.08;0.50;;;20.70;89.00;;;;;;5081816;28;20207;-82
2023/10/06 03:13:24;;;;;;;3.70;0.57;;;21.00;87.30;;;;;;5094251;28;20203;-82
2023/10/06 03:16:03;;;;;;;1.38;0.40;;;21.30;85.60;;;;;;5078219;28;20200;-82
2023/10/06 03:18:34;;;;;;;2.25;0.40;;;21.60;84.80;;;;;;5076603;28;20200;-82
2023/10/06 03:21:13;;;;;;;2.50;0.70;;;21.60;84.20;;;;;;5075236;28;20249;-81
2023/10/06 03:23:57;;;;;;;1.73;0.50;;;21.30;85.50;;;;;;5077062;28;20206;-81
2023/10/06 03:26:44;;;;;;;0.80;0.52;;;21.20;86.40;;;;;;5090952;28;20216;-81
2023/10/06 03:29:44;;;;;;;3.75;1.25;;;21.10;88.70;;;;;;5091767;28;20250;-80
2023/10/06 03:32:20;;;;;;;2.67;1.00;;;21.00;91.20;;;;;;5087755;28;20210;-80
2023/10/06 03:34:55;;;;;;;5.07;1.50;;;21.00;96.40;;;;;;5079235;28;20378;-80
2023/10/06 03:37:51;;;;;;;6.45;2.22;;;20.90;99.90;;;;;;5086800;28;20225;-81
2023/10/06 03:40:42;;;;;;;6.28;1.50;;;20.70;99.90;;;;;;5094430;28;20323;-81
2023/10/06 03:46:15;;;;;;;9.68;1.70;;;20.40;99.90;;;;;;5086367;28;20220;-81
2023/10/06 03:48:54;;;;;;;6.18;1.42;;;20.20;99.90;;;;;;5074855;28;20253;-81
2023/10/06 03:51:26;;;;;;;5.43;1.35;;;20.20;99.90;;;;;;5072709;28;20202;-80
2023/10/06 03:54:09;;;;;;;5.30;1.50;;;20.10;99.90;;;;;;5074699;28;20208;-81
2023/10/06 03:56:49;;;;;;;5.68;1.42;;;20.30;99.90;;;;;;5078678;28;20688;-81
2023/10/06 03:59:28;;;;;;;6.05;1.67;;;20.30;99.90;;;;;;5078496;28;20227;-79
2023/10/06 04:02:10;;;;;;;7.38;1.90;;;20.40;99.90;;;;;;5092851;28;20666;-80
2023/10/06 04:04:50;;;;;;;10.35;2.10;;;20.40;99.90;;;;;;5088468;28;20290;-81
2023/10/06 04:07:33;;;;;;;10.32;2.03;;;20.40;99.90;;;;;;5076238;28;20223;-81
2023/10/06 04:10:07;;;;;;;7.18;1.80;;;20.10;99.90;;;;;;5092855;28;20281;-80
2023/10/06 04:12:40;;;;;;;6.45;1.73;;;20.10;99.90;;;;;;5086920;28;20194;-82
2023/10/06 04:15:27;;;;;;;7.38;1.67;;;20.10;99.90;;;;;;5085374;28;20287;-82
2023/10/06 04:18:17;;;;;;;5.32;1.40;;;20.10;99.90;;;;;;5089134;28;20216;-80
2023/10/06 04:20:52;;;;;;;5.65;1.40;;;20.00;99.90;;;;;;5072388;28;20216;-81
2023/10/06 04:23:38;;;;;;;9.05;1.65;;;20.00;99.90;;;;;;5073415;28;20305;-80
2023/10/06 04:26:26;;;;;;;4.32;1.67;;;19.90;99.90;;;;;;5084472;28;20224;-81
2023/10/06 04:29:04;;;;;;;5.10;1.40;;;19.80;99.90;;;;;;5086196;28;20223;-80
2023/10/06 04:31:39;;;;;;;7.03;2.25;;;19.80;99.90;;;;;;5092765;28;20204;-81
2023/10/06 04:34:37;;;;;;;7.65;1.80;;;19.80;99.90;;;;;;5079657;28;20199;-80
2023/10/06 04:37:13;;;;;;;4.50;1.58;;;19.70;99.90;;;;;;5079789;28;20655;-81
2023/10/06 04:39:45;;;;;;;7.80;1.67;;;19.60;99.90;;;;;;5095640;28;20678;-82
2023/10/06 04:42:18;;;;;;;7.55;1.85;;;19.60;99.90;;;;;;5085149;28;20199;-81
2023/10/06 04:44:54;;;;;;;5.53;1.58;;;19.50;99.90;;;;;;5082805;28;20204;-81
2023/10/06 04:47:31;;;;;;;7.25;2.03;;;19.30;99.90;;;;;;5087824;28;20290;-82
2023/10/06 04:50:15;;;;;;;7.72;1.83;;;19.30;99.90;;;;;;5092139;28;20860;-82
2023/10/06 04:52:54;;;;;;;6.22;1.67;;;19.20;99.90;;;;;;5094059;28;20745;-83
2023/10/06 04:55:27;;;;;;;9.15;2.08;;;19.10;99.90;;;;;;5074846;28;20936;-82
2023/10/06 04:58:05;;;;;;;6.70;1.90;;;19.00;99.90;;;;;;5074541;28;20626;-80
2023/10/06 05:00:37;;;;;;;6.50;1.85;;;19.00;99.90;;;;;;5073703;28;20230;-82
2023/10/06 05:03:13;;;;;;;7.97;2.30;;;18.90;99.90;;;;;;5087066;28;20207;-82
2023/10/06 05:05:50;;;;;;;7.22;2.05;;;18.90;99.90;;;;;;5089256;28;20245;-82
2023/10/06 05:08:21;;;;;;;6.65;2.05;;;18.90;99.90;;;;;;5077528;28;20230;-82
2023/10/06 05:10:55;;;;;;;9.30;2.38;;;18.90;99.90;;;;;;5092375;28;20223;-81
2023/10/06 05:13:27;;;;;;;6.45;1.73;;;19.00;99.90;;;;;;5080359;28;20203;-82
2023/10/06 05:16:01;;;;;;;6.57;1.80;;;19.00;99.90;;;;;;5074332;28;20192;-82
2023/10/06 05:18:35;;;;;;;10.60;2.35;;;18.90;99.90;;;;;;5073578;28;20287;-81
2023/10/06 05:21:11;;;;;;;8.18;2.20;;;18.90;99.90;;;;;;5089886;28;20195;-82
2023/10/06 05:23:45;;;;;;;4.80;1.63;;;18.70;99.90;;;;;;5084095;28;20550;-81
2023/10/06 05:26:20;;;;;;;7.47;1.83;;;18.70;99.90;;;;;;5081563;28;20562;-81
2023/10/06 05:28:52;;;;;;;7.20;1.92;;;18.60;99.90;;;;;;5075523;28;20234;-81
2023/10/06 05:31:24;;;;;;;8.32;1.90;;;18.50;99.90;;;;;;5073554;28;20198;-82
2023/10/06 05:33:57;;;;;;;5.05;1.73;;;18.50;99.90;;;;;;5075473;28;20451;-81
2023/10/06 05:36:31;;;;;;;5.95;1.60;;;18.50;99.90;;;;;;5077855;28;20212;-82
2023/10/06 05:39:11;;;;;;;6.72;1.80;;;18.50;99.90;;;;;;5077388;28;20199;-81
2023/10/06 05:41:47;;;;;;;6.53;1.60;;;18.50;99.90;;;;;;5079376;28;20254;-81
2023/10/06 05:44:18;;;;;;;5.25;1.65;;;18.50;99.90;;;;;;5069941;28;20202;-81
2023/10/06 05:46:49;;;;;;;7.97;2.20;;;18.50;99.90;;;;;;5074248;28;20223;-81
2023/10/06 05:49:22;;;;;;;9.95;1.83;;;18.50;99.90;;;;;;5091511;28;20207;-81
2023/10/06 05:51:59;;;;;;;7.28;1.40;;;18.50;99.90;;;;;;5087141;28;20249;-81
2023/10/06 05:54:41;;;;;;;8.43;1.55;;;18.50;99.90;;;;;;5091273;28;20314;-82
2023/10/06 05:57:16;;;;;;;7.70;1.70;;;18.40;99.90;;;;;;5085432;28;20200;-81
2023/10/06 05:59:48;;;;;;;7.35;1.60;;;18.40;99.90;;;;;;5081541;28;20223;-81
2023/10/06 06:02:24;;;;;;;5.43;1.52;;;18.40;99.90;;;;;;5077990;28;20204;-82
2023/10/06 06:04:58;;;;;;;11.10;1.92;;;18.50;99.90;;;;;;5091867;28;20207;-82
2023/10/06 06:07:34;;;;;;;9.65;2.00;;;18.50;99.90;;;;;;5093161;28;20268;-81
2023/10/06 06:10:13;;;;;;;8.73;1.70;;;18.40;99.90;;;;;;5084845;28;20197;-81
2023/10/06 06:12:47;;;;;;;6.45;1.35;;;18.30;99.90;;;;;;5093326;28;20231;-81
2023/10/06 06:15:19;;;;;;;5.22;1.60;;;18.40;99.90;;;;;;5095529;28;20206;-81
2023/10/06 06:17:56;;;;;;;7.38;1.30;;;18.40;99.90;;;;;;5096091;28;20195;-82
2023/10/06 06:20:30;;;;;;;3.83;1.25;;;18.40;99.90;;;;;;5094793;28;20471;-82
2023/10/06 06:23:08;;;;;;;4.80;1.60;;;18.30;99.90;;;;;;5087062;28;20295;-82
2023/10/06 06:25:42;;;;;;;5.85;1.27;;;18.30;99.90;;;;;;5096340;28;20210;-82
2023/10/06 06:28:14;;;;;;;5.60;1.67;;;18.30;99.90;;;;;;5090030;28;20766;-83
2023/10/06 06:30:47;;;;;;;7.03;1.90;;;18.30;99.90;;;;;;5089496;28;20218;-82
2023/10/06 06:33:22;;;;;;;9.52;2.53;;;18.40;99.90;;;;;;5077070;28;20686;-82
2023/10/06 06:35:54;;;;;;;8.57;1.80;;;18.30;99.90;;;;;;5090187;28;20199;-82
2023/10/06 06:38:28;;;;;;;8.88;1.95;;;18.40;99.90;;;;;;5081420;28;20247;-83
2023/10/06 06:41:01;;;;;;;10.93;2.13;;;18.40;99.90;;;;;;5079671;28;20249;-82
2023/10/06 06:43:33;;;;;;;8.32;1.58;;;18.40;99.90;;;;;;5087526;28;20195;-82
2023/10/06 06:46:05;;;;;;;6.75;1.73;;;18.40;99.90;;;;;;5096073;28;20218;-83
2023/10/06 06:48:46;;;;;;;8.45;1.98;;;18.40;99.90;;;;;;5085404;28;20322;-82
2023/10/06 06:54:19;;;;;;;5.93;1.60;;;18.40;99.90;;;;;;5094695;28;20237;-83
2023/10/06 06:56:53;;;;;;;9.85;3.03;;;18.40;99.90;;;;;;5095529;28;20199;-83
2023/10/06 06:59:26;;;;;;;9.73;2.13;;;18.30;99.90;;;;;;5093041;28;20247;-81
2023/10/06 07:01:59;;;;;;;8.93;2.17;;;18.40;99.90;;;;;;5095415;28;20422;-83
2023/10/06 07:04:35;;;;;;;9.35;1.90;;;18.40;99.90;;;;;;5075616;28;20228;-83
2023/10/06 07:07:12;;;;;;;8.43;1.90;;;18.50;99.90;;;;;;5075250;28;20227;-82
2023/10/06 07:09:48;;;;;;;7.93;1.83;;;18.50;99.90;;;;;;5074420;28;20199;-83
2023/10/06 07:12:23;;;;;;;7.03;1.80;;;18.50;99.90;;;;;;5073456;28;20200;-82
2023/10/06 07:14:56;;;;;;;7.32;2.00;;;18.40;99.90;;;;;;5073926;28;20199;-83
2023/10/06 07:17:27;;;;;;;9.55;2.03;;;18.40;99.90;;;;;;5073068;28;20261;-83
2023/10/06 07:20:00;;;;;;;8.43;1.85;;;18.50;99.90;;;;;;5074642;28;20218;-82
2023/10/06 07:22:41;;;;;;;6.57;1.80;;;18.50;99.90;;;;;;5084542;28;20662;-82
2023/10/06 07:25:19;;;;;;;6.55;1.92;;;18.50;99.90;;;;;;5097264;28;20235;-83
2023/10/06 07:27:55;;;;;;;7.47;2.22;;;18.40;99.90;;;;;;5095253;28;20218;-84
2023/10/06 07:30:34;;;;;;;7.78;1.75;;;18.40;99.90;;;;;;5091770;28;20260;-82
2023/10/06 07:33:08;;;;;;;9.68;2.10;;;18.40;99.90;;;;;;5084065;28;20206;-83
2023/10/06 07:35:41;;;;;;;8.55;1.92;;;18.40;99.90;;;;;;5096263;28;20191;-83
2023/10/06 07:38:13;;;;;;;10.32;2.00;;;18.40;99.90;;;;;;5097892;28;20231;-83
2023/10/06 07:40:50;;;;;;;11.40;2.25;;;18.30;99.90;;;;;;5094248;28;20302;-83
2023/10/06 07:43:24;;;;;;;7.15;2.05;;;18.30;99.90;;;;;;5092250;28;20534;-84
2023/10/06 07:45:56;;;;;;;7.32;1.88;;;18.20;99.90;;;;;;5078960;28;20290;-82
2023/10/06 07:48:27;;;;;;;9.27;2.20;;;18.20;99.90;;;;;;5081911;28;20226;-82
2023/10/06 07:51:09;;;;;;;11.40;2.03;;;18.20;99.90;;;;;;5094857;28;20381;-81
2023/10/06 07:53:43;;;;;;;9.15;2.53;;;18.20;99.90;;;;;;5087092;28;20718;-82
2023/10/06 07:56:18;;;;;;;6.22;1.75;;;18.20;99.90;;;;;;5082019;28;20549;-83
2023/10/06 07:58:52;;;;;;;7.28;1.98;;;18.20;99.90;;;;;;5079110;28;20230;-83
2023/10/06 08:01:27;;;;;;;7.38;1.80;;;18.20;99.90;;;;;;5081692;28;20227;-83
2023/10/06 08:04:00;;;;;;;8.32;1.92;;;18.10;99.90;;;;;;5083866;28;20195;-83
2023/10/06 08:06:33;;;;;;;6.65;2.10;;;18.10;99.90;;;;;;5080798;28;20197;-82
2023/10/06 08:09:10;;;;;;;7.88;1.77;;;18.10;99.90;;;;;;5130470;27;20763;-83
2023/10/06 08:11:47;;;;;;;12.68;2.35;;;18.10;99.90;;;;;;5086651;28;20287;-83
2023/10/06 08:14:19;;;;;;;8.55;2.10;;;18.20;99.90;;;;;;5077022;28;20207;-82
2023/10/06 08:16:54;;;;;;;9.25;1.90;;;18.10;99.90;;;;;;5076567;28;20204;-82
2023/10/06 08:19:26;;;;;;;9.07;2.25;;;18.10;99.90;;;;;;5077163;28;20297;-84
2023/10/06 08:21:57;;;;;;;8.77;1.90;;;18.10;99.90;;;;;;5085507;28;20222;-82
2023/10/06 08:24:30;;;;;;;6.70;1.80;;;18.00;99.90;;;;;;5097325;28;20237;-81
2023/10/06 08:27:07;;;;;;;7.88;2.13;;;18.00;99.90;;;;;;5088229;28;20210;-82
2023/10/06 08:29:41;;;;;;;9.65;2.00;;;17.90;99.90;;;;;;5095465;28;20234;-81
2023/10/06 08:32:13;;;;;;;11.65;2.08;;;17.90;99.90;;;;;;5096696;28;20203;-81
2023/10/06 08:34:46;;;;;;;9.90;1.98;;;17.90;99.90;;;;;;5092416;28;20176;-81
2023/10/06 08:37:19;;;;;;;9.68;2.08;;;18.00;99.90;;;;;;5107810;28;20279;-83
2023/10/06 08:39:53;;;;;;;12.65;2.88;;;17.90;99.90;;;;;;5101128;28;20200;-83
2023/10/06 08:42:29;;;;;;;6.47;2.45;;;17.90;99.90;;;;;;5099603;28;20211;-82
2023/10/06 08:45:04;;;;;;;8.88;2.25;;;18.00;99.90;;;;;;5098348;28;20219;-82
2023/10/06 08:47:41;;;;;;;8.93;2.08;;;18.00;99.90;;;;;;5082380;28;20694;-83
2023/10/06 08:50:20;;;;;;;10.15;2.47;;;18.00;99.90;;;;;;5080275;28;20199;-83
2023/10/06 08:52:54;;;;;;;9.95;3.00;;;18.00;99.90;;;;;;5091759;28;20195;-82
2023/10/06 08:55:27;;;;;;;12.13;3.60;;;18.00;99.90;;;;;;5094710;28;20542;-82
2023/10/06 08:58:04;;;;;;;11.07;4.60;;;18.00;99.90;;;;;;5088253;28;20195;-84
2023/10/06 09:00:37;;;;;;;10.85;4.20;;;18.10;99.90;;;;;;5100577;28;20689;-83
2023/10/06 09:03:09;;;;;;;12.60;4.40;;;18.00;99.90;;;;;;5093005;28;20200;-83
2023/10/06 09:05:44;;;;;;;13.00;2.92;;;18.00;99.90;;;;;;5081151;28;20249;-82
2023/10/06 09:08:17;;;;;;;9.38;4.00;;;18.00;99.90;;;;;;5079645;28;20241;-82
2023/10/06 09:10:55;;;;;;;11.20;5.18;;;18.00;99.90;;;;;;5085808;28;20210;-83
2023/10/06 09:13:31;;;;;;;27.35;13.55;;;18.00;99.90;;;;;;5094029;28;20199;-83
2023/10/06 09:16:09;;;;;;;18.67;10.68;;;18.00;99.90;;;;;;5101867;28;20203;-82
2023/10/06 09:18:43;;;;;;;12.55;6.60;;;18.00;99.90;;;;;;5097783;28;20203;-84
2023/10/06 09:21:19;;;;;;;10.00;4.20;;;18.00;99.90;;;;;;5096652;28;20506;-82
2023/10/06 09:24:00;;;;;;;15.23;4.45;;;18.00;99.90;;;;;;5089507;28;20195;-83
2023/10/06 09:26:32;;;;;;;12.00;4.00;;;18.00;99.90;;;;;;5088368;28;20196;-83
2023/10/06 09:29:09;;;;;;;12.95;4.80;;;18.00;99.90;;;;;;5076341;28;20223;-83
2023/10/06 09:31:44;;;;;;;10.65;4.40;;;18.10;99.90;;;;;;5079117;28;20196;-82
2023/10/06 09:34:25;;;;;;;11.80;3.90;;;18.00;99.90;;;;;;5075844;28;20199;-81
2023/10/06 09:36:57;;;;;;;6.82;3.35;;;18.00;99.90;;;;;;5079116;28;20238;-84
2023/10/06 09:39:32;;;;;;;8.00;3.70;;;18.10;99.90;;;;;;5097998;28;20195;-81
2023/10/06 09:42:12;;;;;;;8.57;4.32;;;18.10;99.90;;;;;;5103610;28;20219;-83
2023/10/06 09:45:01;;;;;;;10.73;3.90;;;18.20;99.90;;;;;;5086913;28;20196;-83
2023/10/06 09:47:36;;;;;;;20.23;9.18;;;18.10;99.90;;;;;;5086647;28;20200;-83
2023/10/06 09:50:10;;;;;;;7.93;1.80;;;18.10;99.90;;;;;;5103806;28;20209;-83
2023/10/06 09:52:47;;;;;;;9.50;3.33;;;18.00;99.90;;;;;;5087384;28;20219;-80
2023/10/06 09:55:25;;;;;;;10.35;3.88;;;18.00;99.90;;;;;;5102487;28;20195;-82
2023/10/06 09:57:59;;;;;;;8.57;2.70;;;18.00;99.90;;;;;;5102563;28;20199;-82
2023/10/06 10:00:38;;;;;;;9.70;1.60;;;18.10;99.90;;;;;;5108536;28;20226;-80
2023/10/06 10:03:13;;;;;;;7.55;1.98;;;18.00;99.90;;;;;;5101034;28;20200;-81
2023/10/06 10:05:47;;;;;;;7.70;2.10;;;18.00;99.90;;;;;;5082795;28;20187;-83
2023/10/06 10:08:18;;;;;;;12.30;2.65;;;18.00;99.90;;;;;;5083172;28;20306;-83
2023/10/06 10:10:56;;;;;;;7.95;2.30;;;18.10;99.90;;;;;;5082432;28;20211;-82
2023/10/06 10:14:06;;;;;;;5.90;1.95;;;18.10;99.90;;;;;;5088255;28;20570;-83
2023/10/06 10:17:06;;;;;;;8.52;2.03;;;18.10;99.90;;;;;;5101197;28;20274;-80
2023/10/06 10:19:40;;;;;;;5.65;1.73;;;18.10;99.90;;;;;;5102065;28;20206;-82
2023/10/06 10:22:16;;;;;;;7.05;1.60;;;18.10;99.90;;;;;;5102583;28;20195;-82
2023/10/06 10:24:48;;;;;;;9.77;1.92;;;18.10;99.90;;;;;;5101360;28;20198;-81
2023/10/06 10:27:22;;;;;;;6.63;2.03;;;18.20;99.90;;;;;;5101523;28;20191;-81
2023/10/06 10:29:54;;;;;;;7.65;2.10;;;18.20;99.90;;;;;;5081184;28;20224;-81
2023/10/06 10:32:26;;;;;;;7.78;1.70;;;18.10;99.90;;;;;;5082777;28;20624;-81
2023/10/06 10:35:17;;;;;;;9.88;1.80;;;18.10;99.90;;;;;;5097278;28;20222;-81
2023/10/06 10:38:00;;;;;;;7.43;1.77;;;18.10;99.90;;;;;;5097561;28;20243;-82
2023/10/06 10:40:33;;;;;;;8.13;1.98;;;18.10;99.90;;;;;;5102876;28;20288;-82
2023/10/06 10:43:11;;;;;;;5.75;1.65;;;18.10;99.90;;;;;;5135133;27;20219;-83
2023/10/06 10:45:46;;;;;;;9.25;2.00;;;18.10;99.90;;;;;;5081749;28;20204;-82
2023/10/06 10:48:22;;;;;;;6.63;1.55;;;18.10;99.90;;;;;;5084046;28;20702;-84
2023/10/06 10:51:17;;;;;;;10.25;2.00;;;18.10;99.90;;;;;;5095499;28;20267;-82
2023/10/06 10:53:54;;;;;;;8.00;1.67;;;18.10;99.90;;;;;;5098819;28;20203;-83
2023/10/06 10:56:36;;;;;;;7.93;2.15;;;18.00;99.90;;;;;;5082361;28;20202;-82
2023/10/06 10:59:09;;;;;;;10.60;4.68;;;18.00;99.90;;;;;;5088431;28;20245;-82
2023/10/06 11:01:44;;;;;;;11.50;4.68;;;18.00;99.90;;;;;;5102200;28;20283;-83
2023/10/06 11:04:29;;;;;;;15.88;8.32;;;18.00;99.90;;;;;;5102387;28;20206;-81
2023/10/06 11:07:13;;;;;;;7.63;3.40;;;18.00;99.90;;;;;;5100389;28;20226;-79
2023/10/06 11:12:38;;;;;;;11.77;2.15;;;17.90;99.90;;;;;;5096946;28;20248;-82
2023/10/06 11:15:15;;;;;;;11.00;3.40;;;17.90;99.90;;;;;;5088939;28;20195;-83
2023/10/06 11:17:49;;;;;;;8.73;4.45;;;17.80;99.90;;;;;;5080558;28;20192;-84
2023/10/06 11:20:22;;;;;;;10.85;3.38;;;17.80;99.90;;;;;;5093013;28;20195;-81
2023/10/06 11:23:00;;;;;;;19.55;10.32;;;17.70;99.90;;;;;;5088680;28;20232;-81
2023/10/06 11:25:36;;;;;;;11.90;5.85;;;17.70;99.90;;;;;;5076853;28;20203;-82
2023/10/06 11:28:12;;;;;;;7.55;3.03;;;17.70;99.90;;;;;;5080908;28;20206;-81
2023/10/06 11:30:45;;;;;;;10.52;4.35;;;17.70;99.90;;;;;;5091645;28;20215;-81
2023/10/06 11:33:19;;;;;;;11.88;4.90;;;17.60;99.90;;;;;;5094894;28;20308;-80
2023/10/06 11:35:51;;;;;;;13.13;5.20;;;17.60;99.90;;;;;;5094069;28;20199;-80
2023/10/06 11:38:26;;;;;;;9.85;3.85;;;17.50;99.90;;;;;;5090354;28;20231;-81
2023/10/06 11:40:58;;;;;;;8.45;2.78;;;17.50;99.90;;;;;;5072866;28;20268;-81
2023/10/06 11:43:30;;;;;;;11.07;2.80;;;17.50;99.90;;;;;;5073011;28;20764;-82
2023/10/06 11:46:07;;;;;;;9.20;3.38;;;17.40;99.90;;;;;;5072204;28;20273;-81
2023/10/06 11:48:40;;;;;;;13.77;6.07;;;17.30;99.90;;;;;;5073141;28;20306;-78
2023/10/06 11:51:13;;;;;;;9.95;3.22;;;17.30;99.90;;;;;;5083991;28;20196;-81
2023/10/06 11:53:47;;;;;;;11.27;3.05;;;17.20;99.90;;;;;;5073413;28;20663;-82
2023/10/06 11:56:20;;;;;;;23.23;14.65;;;17.20;99.90;;;;;;5087085;28;20684;-82
2023/10/06 11:58:52;;;;;;;14.55;3.95;;;17.20;99.90;;;;;;5095259;28;20700;-80
2023/10/06 12:01:32;;;;;;;12.45;5.20;;;17.20;99.90;;;;;;5092302;28;20670;-80
2023/10/06 12:04:04;;;;;;;8.15;2.58;;;17.20;99.90;;;;;;5095192;28;20194;-81
2023/10/06 12:06:46;;;;;;;9.85;3.90;;;17.20;99.90;;;;;;5091443;28;20198;-82
2023/10/06 12:09:30;;;;;;;9.25;3.50;;;17.20;99.90;;;;;;5100332;28;20239;-80
2023/10/06 12:12:03;;;;;;;9.18;4.13;;;17.20;99.90;;;;;;5097197;28;20202;-82
2023/10/06 12:14:40;;;;;;;9.45;3.13;;;17.20;99.90;;;;;;5088916;28;20667;-81
2023/10/06 12:17:30;;;;;;;11.70;4.88;;;17.20;99.90;;;;;;5086175;28;20654;-83
2023/10/06 12:20:13;;;;;;;13.18;3.63;;;17.20;99.90;;;;;;5100467;28;20210;-82
2023/10/06 12:22:47;;;;;;;10.45;3.08;;;17.20;99.90;;;;;;5083587;28;20217;-82
2023/10/06 12:25:27;;;;;;;11.75;3.67;;;17.10;99.90;;;;;;5099036;28;20269;-82
2023/10/06 12:28:00;;;;;;;9.70;3.15;;;17.10;99.90;;;;;;5086921;28;20271;-81
2023/10/06 12:30:30;;;;;;;8.82;3.40;;;17.10;99.90;;;;;;5079838;28;20667;-82
2023/10/06 12:33:01;;;;;;;13.20;5.72;;;17.10;99.90;;;;;;5082297;28;20195;-82
2023/10/06 12:35:36;;;;;;;11.13;2.25;;;17.00;99.90;;;;;;5097813;28;20681;-82
2023/10/06 12:38:14;;;;;;;10.27;3.40;;;17.00;99.90;;;;;;5084099;28;20231;-81
2023/10/06 12:40:55;;;;;;;13.77;4.50;;;16.90;99.90;;;;;;5080775;28;20229;-81
2023/10/06 12:43:36;;;;;;;15.23;6.60;;;16.90;99.90;;;;;;5075565;28;20196;-81
2023/10/06 12:46:22;;;;;;;18.05;6.47;;;16.90;99.90;;;;;;5073778;28;20208;-80
2023/10/06 12:49:18;;;;;;;9.85;2.58;;;16.90;99.90;;;;;;5073344;28;20287;-82
2023/10/06 12:51:52;;;;;;;6.53;1.60;;;16.90;99.90;;;;;;5073303;28;20196;-82
2023/10/06 12:54:26;;;;;;;8.48;2.15;;;16.90;99.90;;;;;;5078383;28;20208;-82
2023/10/06 12:57:12;;;;;;;8.20;1.95;;;17.00;99.90;;;;;;5093562;28;20226;-81
2023/10/06 12:59:50;;;;;;;8.10;2.35;;;17.00;99.90;;;;;;5095338;28;20234;-82
2023/10/06 13:02:27;;;;;;;8.32;2.20;;;17.10;99.90;;;;;;5078897;28;20290;-82
2023/10/06 13:05:16;;;;;;;9.63;1.60;;;16.90;99.90;;;;;;5074734;28;20200;-82
2023/10/06 13:07:48;;;;;;;6.38;1.92;;;16.80;99.90;;;;;;5087636;28;20276;-82
2023/10/06 13:10:27;;;;;;;7.45;1.88;;;16.90;99.90;;;;;;5094086;28;20338;-82
2023/10/06 13:13:06;;;;;;;6.32;1.70;;;16.90;99.90;;;;;;5095269;28;20286;-82
2023/10/06 13:15:53;;;;;;;8.43;1.40;;;16.90;99.90;;;;;;5094542;28;20198;-83
2023/10/06 13:18:24;;;;;;;9.02;1.55;;;16.90;99.90;;;;;;5076469;28;20204;-81
2023/10/06 13:21:06;;;;;;;5.50;1.63;;;17.00;99.90;;;;;;5075384;28;20211;-81
2023/10/06 13:23:43;;;;;;;6.07;1.83;;;17.00;99.90;;;;;;5080766;28;20195;-81
2023/10/06 13:26:20;;;;;;;6.35;1.42;;;17.00;99.90;;;;;;5089081;28;20191;-82
2023/10/06 13:29:05;;;;;;;5.05;1.50;;;17.00;99.90;;;;;;5072207;28;20295;-81
2023/10/06 13:31:53;;;;;;;6.88;1.70;;;17.00;99.90;;;;;;5088481;28;20476;-83
2023/10/06 13:34:29;;;;;;;6.05;1.75;;;17.00;99.90;;;;;;5087001;28;20386;-83
2023/10/06 13:37:02;;;;;;;8.98;1.58;;;17.10;99.90;;;;;;5073626;28;20219;-83
2023/10/06 13:39:44;;;;;;;6.45;1.88;;;17.10;99.90;;;;;;5076391;28;20259;-83
2023/10/06 13:42:32;;;;;;;4.30;1.50;;;17.10;99.90;;;;;;5078075;28;20207;-83